Terminal Aerodrome Forecast
Issued by NWS

Home | Current Version | Previous Version | Text Only | Print | Product List | Glossary On
Versions: 1 2 3 4 5 6 7 8 9 10 11 12 13 14 15 16 17 18 19 20 21 22 23 24 25
000
FTAK31 PAFA 180541
TAFASC
TAF
PASC 180541Z 1806/1906 31008KT 6SM BR OVC010
     FM181300 06008KT 2SM BR OVC004
     FM181700 08013KT 4SM BR OVC010
     FM190300 07014KT P6SM OVC015=

USA.gov is the U.S. government's official web portal to all federal, state and local government web resources and services.